createdAt,value
2018-12-30T00:01:53.742Z,26.33
2018-12-30T00:04:21.650Z,25.90
2018-12-30T00:06:49.301Z,29.10
2018-12-30T00:09:16.549Z,23.00
2018-12-30T00:11:43.822Z,19.77
2018-12-30T00:14:11.181Z,24.77
2018-12-30T00:16:38.430Z,20.73
2018-12-30T00:19:05.705Z,27.23
2018-12-30T00:21:32.963Z,25.77
2018-12-30T00:24:00.323Z,21.17
2018-12-30T00:26:27.677Z,20.33
2018-12-30T00:28:54.926Z,23.73
2018-12-30T00:31:22.344Z,25.17
2018-12-30T00:33:49.694Z,15.97
2018-12-30T00:36:17.048Z,17.13
2018-12-30T00:38:44.373Z,22.13
2018-12-30T00:41:11.974Z,18.80
2018-12-30T00:43:39.223Z,20.50
2018-12-30T00:46:06.824Z,17.30
2018-12-30T00:48:34.174Z,22.20
2018-12-30T00:51:01.418Z,11.33
2018-12-30T00:53:28.709Z,13.33
2018-12-30T00:55:56.293Z,15.20
2018-12-30T00:58:23.650Z,19.27
2018-12-30T01:00:51.076Z,10.50
2018-12-30T01:03:19.224Z,20.20
2018-12-30T01:05:46.542Z,11.00
2018-12-30T01:08:13.878Z,15.80
2018-12-30T01:10:41.219Z,13.70
2018-12-30T01:13:08.544Z,18.20
2018-12-30T01:15:36.187Z,17.83
2018-12-30T01:18:03.471Z,21.53
2018-12-30T01:20:30.750Z,23.13
2018-12-30T01:22:57.994Z,14.97
2018-12-30T01:25:25.347Z,16.50
2018-12-30T01:27:52.670Z,10.57
2018-12-30T01:30:19.941Z,17.43
2018-12-30T01:32:47.271Z,16.47
2018-12-30T01:35:14.617Z,11.50
2018-12-30T01:37:41.901Z,18.83
2018-12-30T01:40:09.289Z,10.23
2018-12-30T01:42:36.533Z,14.73
2018-12-30T01:45:04.264Z,10.37
2018-12-30T01:47:31.539Z,13.17
2018-12-30T01:49:58.826Z,14.03
2018-12-30T01:52:26.138Z,7.20
2018-12-30T01:54:53.496Z,21.70
2018-12-30T01:57:20.836Z,16.13
2018-12-30T01:59:48.177Z,16.63
2018-12-30T02:02:15.918Z,15.47
2018-12-30T02:04:43.202Z,13.33
2018-12-30T02:07:10.453Z,17.10
2018-12-30T02:09:37.698Z,13.70
2018-12-30T02:12:05.314Z,17.27
2018-12-30T02:14:32.552Z,13.07
2018-12-30T02:16:59.908Z,7.67
2018-12-30T02:19:27.154Z,17.13
2018-12-30T02:21:54.407Z,14.43
2018-12-30T02:24:21.678Z,8.90
2018-12-30T02:26:48.959Z,12.40
2018-12-30T02:29:16.481Z,16.83
2018-12-30T02:31:43.757Z,16.87
2018-12-30T02:34:11.283Z,17.30
2018-12-30T02:36:38.531Z,13.33
2018-12-30T02:39:06.140Z,16.83
2018-12-30T02:41:33.453Z,14.13
2018-12-30T02:44:00.705Z,13.90
2018-12-30T02:46:27.986Z,14.17
2018-12-30T02:48:55.239Z,13.93
2018-12-30T02:51:22.514Z,10.97
2018-12-30T02:53:49.768Z,19.60
2018-12-30T02:56:17.373Z,12.80
2018-12-30T02:58:44.667Z,13.67
2018-12-30T03:01:12.173Z,14.53
2018-12-30T03:03:39.457Z,10.73
2018-12-30T03:06:06.705Z,7.67
2018-12-30T03:08:33.946Z,9.50
2018-12-30T03:11:01.326Z,17.03
2018-12-30T03:13:28.579Z,18.00
2018-12-30T03:15:56.097Z,13.03
2018-12-30T03:18:23.350Z,15.07
2018-12-30T03:20:50.703Z,13.87
2018-12-30T03:23:18.218Z,16.00
2018-12-30T03:25:45.585Z,13.30
2018-12-30T03:28:12.831Z,14.60
2018-12-30T03:30:40.124Z,12.70
2018-12-30T03:33:07.442Z,14.07
2018-12-30T03:35:34.726Z,14.00
2018-12-30T03:38:02.236Z,24.43
2018-12-30T03:40:29.558Z,17.67
2018-12-30T03:42:56.840Z,18.10
2018-12-30T03:45:24.074Z,22.03
2018-12-30T03:47:51.598Z,16.27
2018-12-30T03:50:18.903Z,16.07
2018-12-30T03:52:46.218Z,12.43
2018-12-30T03:55:13.468Z,14.90
2018-12-30T03:57:40.748Z,13.67
2018-12-30T04:00:08.024Z,15.33
2018-12-30T04:02:35.271Z,11.50
2018-12-30T04:05:02.560Z,17.00
2018-12-30T04:07:30.076Z,15.23
2018-12-30T04:09:57.378Z,15.90
2018-12-30T04:12:24.650Z,17.83
2018-12-30T04:14:51.926Z,11.90
2018-12-30T04:17:19.185Z,17.33
2018-12-30T04:19:46.455Z,12.33
2018-12-30T04:22:17.031Z,14.00
2018-12-30T04:24:42.703Z,12.40
2018-12-30T04:27:09.986Z,13.40
2018-12-30T04:29:37.225Z,12.33
2018-12-30T04:32:04.519Z,15.90
2018-12-30T04:34:31.780Z,16.60
2018-12-30T04:36:59.024Z,10.93
2018-12-30T04:39:26.295Z,17.93
2018-12-30T04:41:53.570Z,12.47
2018-12-30T04:44:20.821Z,11.93
2018-12-30T04:46:48.089Z,11.90
2018-12-30T04:49:15.386Z,11.43
2018-12-30T04:51:42.724Z,12.63
2018-12-30T04:54:09.979Z,16.37
2018-12-30T04:56:37.245Z,17.53
2018-12-30T04:59:04.522Z,15.37
2018-12-30T05:01:31.779Z,17.40
2018-12-30T05:03:59.049Z,21.83
2018-12-30T05:06:26.546Z,13.80
2018-12-30T05:08:53.837Z,13.77
2018-12-30T05:11:21.083Z,17.70
2018-12-30T05:13:48.330Z,19.07
2018-12-30T05:16:15.644Z,14.87
2018-12-30T05:18:43.206Z,15.27
2018-12-30T05:21:10.497Z,14.47
2018-12-30T05:23:37.746Z,19.67
2018-12-30T05:26:04.995Z,16.43
2018-12-30T05:28:32.270Z,18.83
2018-12-30T05:30:59.513Z,15.13
2018-12-30T05:33:26.803Z,20.30
2018-12-30T05:35:54.143Z,18.93
2018-12-30T05:38:21.393Z,16.67
2018-12-30T05:40:48.927Z,10.40
2018-12-30T05:43:16.173Z,16.03
2018-12-30T05:45:43.458Z,11.73
2018-12-30T05:48:10.918Z,12.77
2018-12-30T05:50:38.202Z,13.63
2018-12-30T05:53:05.548Z,13.23
2018-12-30T05:55:32.805Z,18.50
2018-12-30T05:58:00.074Z,16.27
2018-12-30T06:00:27.345Z,11.73
2018-12-30T06:02:54.630Z,14.53
2018-12-30T06:05:21.902Z,21.27
2018-12-30T06:07:49.193Z,15.70
2018-12-30T06:10:16.446Z,15.73
2018-12-30T06:12:43.689Z,19.47
2018-12-30T06:15:10.974Z,18.50
2018-12-30T06:17:38.220Z,16.63
2018-12-30T06:20:05.502Z,16.23
2018-12-30T06:22:32.754Z,20.87
2018-12-30T06:25:00.254Z,15.77
2018-12-30T06:27:27.533Z,35.80
2018-12-30T06:29:54.781Z,24.57
2018-12-30T06:32:22.070Z,16.13
2018-12-30T06:34:49.332Z,15.70
2018-12-30T06:37:16.573Z,18.43
2018-12-30T06:39:43.856Z,14.40
2018-12-30T06:42:11.134Z,18.83
2018-12-30T06:44:38.394Z,13.87
2018-12-30T06:47:05.683Z,11.67
2018-12-30T06:49:33.174Z,12.87
2018-12-30T06:52:00.454Z,12.53
2018-12-30T06:54:28.006Z,11.10
2018-12-30T06:56:55.261Z,18.63
2018-12-30T06:59:22.533Z,11.30
2018-12-30T07:01:49.780Z,19.40
2018-12-30T07:04:17.056Z,16.57
2018-12-30T07:06:44.587Z,16.40
2018-12-30T07:09:11.835Z,12.00
2018-12-30T07:11:39.110Z,14.40
2018-12-30T07:14:06.363Z,13.60
2018-12-30T07:16:33.645Z,20.10
2018-12-30T07:19:00.894Z,15.80
2018-12-30T07:21:28.175Z,13.83
2018-12-30T07:23:55.458Z,19.57
2018-12-30T07:26:22.710Z,16.43
2018-12-30T07:28:49.961Z,16.53
2018-12-30T07:31:17.276Z,23.67
2018-12-30T07:33:44.567Z,19.20
2018-12-30T07:36:12.121Z,18.97
2018-12-30T07:38:39.370Z,15.37
2018-12-30T07:41:06.636Z,14.67
2018-12-30T07:43:33.885Z,18.17
2018-12-30T07:46:01.134Z,17.07
2018-12-30T07:48:28.410Z,18.37
2018-12-30T07:50:55.690Z,10.77
2018-12-30T07:53:22.940Z,14.17
2018-12-30T07:55:50.217Z,18.83
2018-12-30T07:58:17.462Z,18.10
2018-12-30T08:00:44.718Z,22.57
2018-12-30T08:03:12.001Z,16.67
2018-12-30T08:05:39.523Z,13.27
2018-12-30T08:08:06.778Z,14.57
2018-12-30T08:10:34.023Z,22.60
2018-12-30T08:13:01.349Z,18.97
2018-12-30T08:15:28.631Z,17.40
2018-12-30T08:17:56.005Z,14.43
2018-12-30T08:20:23.279Z,14.77
2018-12-30T08:22:50.554Z,19.27
2018-12-30T08:25:17.799Z,19.80
2018-12-30T08:27:45.334Z,15.27
2018-12-30T08:30:12.616Z,22.87
2018-12-30T08:32:39.860Z,22.83
2018-12-30T08:35:07.134Z,22.40
2018-12-30T08:37:34.382Z,26.33
2018-12-30T08:40:01.667Z,21.33
2018-12-30T08:42:28.934Z,21.07
2018-12-30T08:44:56.211Z,17.47
2018-12-30T08:47:23.496Z,18.30
2018-12-30T08:49:50.737Z,18.23
2018-12-30T08:52:18.009Z,21.17
2018-12-30T08:54:45.275Z,19.67
2018-12-30T08:57:12.521Z,21.47
2018-12-30T08:59:39.953Z,17.83
2018-12-30T09:02:07.239Z,27.33
2018-12-30T09:04:34.570Z,18.60
2018-12-30T09:07:01.850Z,23.83
2018-12-30T09:09:29.181Z,26.10
2018-12-30T09:11:56.426Z,18.50
2018-12-30T09:14:23.705Z,22.70
2018-12-30T09:16:51.223Z,17.53
2018-12-30T09:19:18.554Z,24.63
2018-12-30T09:21:46.099Z,26.93
2018-12-30T09:24:13.595Z,19.27
2018-12-30T09:26:40.863Z,24.43
2018-12-30T09:29:08.156Z,20.50
2018-12-30T09:31:35.433Z,19.80
2018-12-30T09:34:02.815Z,18.73
2018-12-30T09:36:30.382Z,26.77
2018-12-30T09:38:57.631Z,26.83
2018-12-30T09:41:24.878Z,20.97
2018-12-30T09:43:52.166Z,24.00
2018-12-30T09:46:19.415Z,26.90
2018-12-30T09:48:46.699Z,33.80
2018-12-30T09:51:14.240Z,24.83
2018-12-30T09:53:45.266Z,21.37
2018-12-30T09:56:11.173Z,18.90
2018-12-30T09:58:38.426Z,20.70
2018-12-30T10:01:05.689Z,23.30
2018-12-30T10:03:33.222Z,17.43
2018-12-30T10:06:00.465Z,18.43
2018-12-30T10:08:27.753Z,25.23
2018-12-30T10:10:55.010Z,24.77
2018-12-30T10:13:22.339Z,25.53
2018-12-30T10:15:49.618Z,24.80
2018-12-30T10:18:16.875Z,18.90
2018-12-30T10:20:44.160Z,20.20
2018-12-30T10:23:11.410Z,28.37
2018-12-30T10:25:38.914Z,27.27
2018-12-30T10:28:06.190Z,24.00
2018-12-30T10:30:33.704Z,29.40
2018-12-30T10:33:01.230Z,24.23
2018-12-30T10:35:28.503Z,23.07
2018-12-30T10:37:55.750Z,20.60
2018-12-30T10:40:23.374Z,19.17
2018-12-30T10:42:50.927Z,26.30
2018-12-30T10:45:18.458Z,27.03
2018-12-30T10:47:45.967Z,21.10
2018-12-30T10:50:13.319Z,22.73
2018-12-30T10:52:40.566Z,18.97
2018-12-30T10:55:07.821Z,19.57
2018-12-30T10:57:35.362Z,14.07
2018-12-30T11:00:02.681Z,17.30
2018-12-30T11:02:30.006Z,23.10
2018-12-30T11:04:57.259Z,21.73
2018-12-30T11:07:24.796Z,19.33
2018-12-30T11:09:52.066Z,17.20
2018-12-30T11:12:19.319Z,21.60
2018-12-30T11:14:46.859Z,13.20
2018-12-30T11:17:14.112Z,15.27
2018-12-30T11:19:41.455Z,19.30
2018-12-30T11:22:08.727Z,17.60
2018-12-30T11:24:36.076Z,9.70
2018-12-30T11:27:03.443Z,15.60
2018-12-30T11:29:30.724Z,11.30
2018-12-30T11:31:58.428Z,13.20
2018-12-30T11:34:25.683Z,13.23
2018-12-30T11:36:53.018Z,16.87
2018-12-30T11:39:20.699Z,16.47
2018-12-30T11:41:48.362Z,10.27
2018-12-30T11:44:15.685Z,14.80
2018-12-30T11:46:42.966Z,12.37
2018-12-30T11:49:10.517Z,12.77
2018-12-30T11:51:37.786Z,11.80
2018-12-30T11:54:05.062Z,12.23
2018-12-30T11:56:32.351Z,11.70
2018-12-30T11:58:59.593Z,10.10
2018-12-30T12:01:26.842Z,21.17
2018-12-30T12:03:54.378Z,12.33
2018-12-30T12:06:21.631Z,14.00
2018-12-30T12:08:48.911Z,18.93
2018-12-30T12:11:16.156Z,11.20
2018-12-30T12:13:43.426Z,7.93
2018-12-30T12:16:10.668Z,8.83
2018-12-30T12:18:37.951Z,15.53
2018-12-30T12:21:05.192Z,10.50
2018-12-30T12:23:32.471Z,14.40
2018-12-30T12:25:59.713Z,9.00
2018-12-30T12:28:27.062Z,7.60
2018-12-30T12:30:54.426Z,10.60
2018-12-30T12:33:21.682Z,12.03
2018-12-30T12:35:48.954Z,15.77
2018-12-30T12:38:16.201Z,11.60
2018-12-30T12:40:43.476Z,12.97
2018-12-30T12:43:10.737Z,10.80
2018-12-30T12:45:38.105Z,8.33
2018-12-30T12:48:05.353Z,11.23
2018-12-30T12:50:32.641Z,19.83
2018-12-30T12:52:59.889Z,13.37
2018-12-30T12:55:27.153Z,9.83
2018-12-30T12:57:54.479Z,6.53
2018-12-30T13:00:21.721Z,10.43
2018-12-30T13:02:49.011Z,10.03
2018-12-30T13:05:16.262Z,10.23
2018-12-30T13:07:43.539Z,8.03
2018-12-30T13:10:11.107Z,11.07
2018-12-30T13:12:38.355Z,5.57
2018-12-30T13:15:06.498Z,11.73
2018-12-30T13:17:33.774Z,12.30
2018-12-30T13:20:01.018Z,9.80
2018-12-30T13:22:28.558Z,14.00
2018-12-30T13:24:55.811Z,11.77
2018-12-30T13:27:23.058Z,13.83
2018-12-30T13:29:50.413Z,10.90
2018-12-30T13:32:17.666Z,12.67
2018-12-30T13:34:45.168Z,8.53
2018-12-30T13:37:12.437Z,6.87
2018-12-30T13:39:39.681Z,11.30
2018-12-30T13:42:06.957Z,14.40
2018-12-30T13:44:34.210Z,13.27
2018-12-30T13:47:02.035Z,9.57
2018-12-30T13:49:29.306Z,6.50
2018-12-30T13:51:56.582Z,8.50
2018-12-30T13:54:23.831Z,10.07
2018-12-30T13:56:51.371Z,12.00
2018-12-30T13:59:18.646Z,10.83
2018-12-30T14:01:45.896Z,9.10
2018-12-30T14:04:13.171Z,11.77
2018-12-30T14:06:40.412Z,9.00
2018-12-30T14:09:07.754Z,10.13
2018-12-30T14:11:35.002Z,12.17
2018-12-30T14:14:02.275Z,5.33
2018-12-30T14:16:29.518Z,6.43
2018-12-30T14:18:56.782Z,7.27
2018-12-30T14:21:24.033Z,7.43
2018-12-30T14:23:51.341Z,8.23
2018-12-30T14:26:18.873Z,14.87
2018-12-30T14:28:46.379Z,4.50
2018-12-30T14:31:13.621Z,8.93
2018-12-30T14:33:40.894Z,13.63
2018-12-30T14:36:08.171Z,9.77
2018-12-30T14:38:35.671Z,15.93
2018-12-30T14:41:02.951Z,7.93
2018-12-30T14:43:31.050Z,9.37
2018-12-30T14:45:58.331Z,7.70
2018-12-30T14:48:25.758Z,6.53
2018-12-30T14:50:53.282Z,14.60
2018-12-30T14:53:20.546Z,8.60
2018-12-30T14:55:48.059Z,13.23
2018-12-30T14:58:15.343Z,11.00
2018-12-30T15:00:42.586Z,9.27
2018-12-30T15:03:09.870Z,6.60
2018-12-30T15:05:37.140Z,9.83
2018-12-30T15:08:04.383Z,6.70
2018-12-30T15:10:31.658Z,14.00
2018-12-30T15:12:58.933Z,6.40
2018-12-30T15:15:26.180Z,5.57
2018-12-30T15:17:53.525Z,5.10
2018-12-30T15:20:20.799Z,8.83
2018-12-30T15:22:48.051Z,6.60
2018-12-30T15:25:15.413Z,6.30
2018-12-30T15:27:42.657Z,8.33
2018-12-30T15:30:09.906Z,7.20
2018-12-30T15:32:37.186Z,12.20
2018-12-30T15:35:05.312Z,10.93
2018-12-30T15:37:32.594Z,10.90
2018-12-30T15:40:00.165Z,10.27
2018-12-30T15:42:27.728Z,8.63
2018-12-30T15:44:54.965Z,7.37
2018-12-30T15:47:22.459Z,9.13
2018-12-30T15:49:49.739Z,12.40
2018-12-30T15:52:16.986Z,7.27
2018-12-30T15:54:44.632Z,9.20
2018-12-30T15:57:11.957Z,11.27
2018-12-30T15:59:39.208Z,12.73
2018-12-30T16:02:06.487Z,12.20
2018-12-30T16:04:33.731Z,9.10
2018-12-30T16:07:01.419Z,5.93
2018-12-30T16:09:28.668Z,5.43
2018-12-30T16:11:56.026Z,4.90
2018-12-30T16:14:23.350Z,9.63
2018-12-30T16:16:51.636Z,9.10
2018-12-30T16:19:18.949Z,5.40
2018-12-30T16:21:46.479Z,9.87
2018-12-30T16:24:13.970Z,8.10
2018-12-30T16:26:41.209Z,7.17
2018-12-30T16:29:08.485Z,11.90
2018-12-30T16:31:35.734Z,11.20
2018-12-30T16:34:02.981Z,12.87
2018-12-30T16:36:30.255Z,8.10
2018-12-30T16:38:57.530Z,7.13
2018-12-30T16:41:24.815Z,12.53
2018-12-30T16:43:52.058Z,7.73
2018-12-30T16:46:19.344Z,12.70
2018-12-30T16:48:46.857Z,8.77
2018-12-30T16:51:14.134Z,8.60
2018-12-30T16:53:41.386Z,7.50
2018-12-30T16:56:08.747Z,10.50
2018-12-30T16:58:35.989Z,12.40
2018-12-30T17:01:03.270Z,12.70
2018-12-30T17:03:30.594Z,7.53
2018-12-30T17:05:57.873Z,9.27
2018-12-30T17:08:25.122Z,8.60
2018-12-30T17:10:52.370Z,8.83
2018-12-30T17:13:19.676Z,6.73
2018-12-30T17:15:47.009Z,10.17
2018-12-30T17:18:14.256Z,7.60
2018-12-30T17:20:42.035Z,16.10
2018-12-30T17:23:09.697Z,11.73
2018-12-30T17:25:42.953Z,10.17
2018-12-30T17:28:05.913Z,10.67
2018-12-30T17:30:33.287Z,9.93
2018-12-30T17:33:00.778Z,9.40
2018-12-30T17:35:28.097Z,8.83
2018-12-30T17:37:55.387Z,5.20
2018-12-30T17:40:22.635Z,9.83
2018-12-30T17:42:49.926Z,8.73
2018-12-30T17:45:17.175Z,11.80
2018-12-30T17:47:44.721Z,10.13
2018-12-30T17:50:12.045Z,10.80
2018-12-30T17:52:39.321Z,9.70
2018-12-30T17:55:06.681Z,12.73
2018-12-30T17:57:33.970Z,15.13
2018-12-30T18:00:01.240Z,11.13
2018-12-30T18:02:28.526Z,11.13
2018-12-30T18:04:55.789Z,10.47
2018-12-30T18:07:23.282Z,9.60
2018-12-30T18:09:50.567Z,18.67
2018-12-30T18:12:18.124Z,11.63
2018-12-30T18:14:45.411Z,7.20
2018-12-30T18:17:12.661Z,14.50
2018-12-30T18:19:39.936Z,14.20
2018-12-30T18:22:07.218Z,10.60
2018-12-30T18:24:34.611Z,13.67
2018-12-30T18:27:01.890Z,9.93
2018-12-30T18:29:29.386Z,12.40
2018-12-30T18:31:57.003Z,10.13
2018-12-30T18:34:24.256Z,14.93
2018-12-30T18:36:51.828Z,10.10
2018-12-30T18:39:19.330Z,10.13
2018-12-30T18:41:46.781Z,13.53
2018-12-30T18:44:14.054Z,10.87
2018-12-30T18:46:41.371Z,13.40
2018-12-30T18:49:08.618Z,10.77
2018-12-30T18:51:35.895Z,8.73
2018-12-30T18:54:03.142Z,12.47
2018-12-30T18:56:30.423Z,12.63
2018-12-30T18:58:57.705Z,13.83
2018-12-30T19:01:24.987Z,13.10
2018-12-30T19:03:52.238Z,17.37
2018-12-30T19:06:19.507Z,14.47
2018-12-30T19:08:46.749Z,11.80
2018-12-30T19:11:14.017Z,13.40
2018-12-30T19:13:41.565Z,7.90
2018-12-30T19:16:08.806Z,9.43
2018-12-30T19:18:36.338Z,12.20
2018-12-30T19:21:03.587Z,12.10
2018-12-30T19:23:31.114Z,9.73
2018-12-30T19:26:01.115Z,14.97
2018-12-30T19:28:27.362Z,13.10
2018-12-30T19:30:54.719Z,11.50
2018-12-30T19:33:22.012Z,11.20
2018-12-30T19:35:49.256Z,9.60
2018-12-30T19:38:16.499Z,13.53
2018-12-30T19:40:44.049Z,15.70
2018-12-30T19:43:11.402Z,11.93
2018-12-30T19:45:38.648Z,12.33
2018-12-30T19:48:06.006Z,11.00
2018-12-30T19:50:33.252Z,11.70
2018-12-30T19:53:00.498Z,11.10
2018-12-30T19:55:27.779Z,11.20
2018-12-30T19:57:55.025Z,11.97
2018-12-30T20:00:22.303Z,11.00
2018-12-30T20:02:49.551Z,10.07
2018-12-30T20:05:16.841Z,10.50
2018-12-30T20:07:44.086Z,8.23
2018-12-30T20:10:11.429Z,12.60
2018-12-30T20:12:38.775Z,14.07
2018-12-30T20:15:06.802Z,10.43
2018-12-30T20:17:34.069Z,10.00
2018-12-30T20:20:02.270Z,11.17
2018-12-30T20:22:29.923Z,15.90
2018-12-30T20:24:57.201Z,12.23
2018-12-30T20:27:24.450Z,8.60
2018-12-30T20:29:51.738Z,16.90
2018-12-30T20:32:18.990Z,10.50
2018-12-30T20:34:46.263Z,15.50
2018-12-30T20:37:13.591Z,14.73
2018-12-30T20:39:40.953Z,10.73
2018-12-30T20:42:08.202Z,15.87
2018-12-30T20:44:35.455Z,13.93
2018-12-30T20:47:02.996Z,14.57
2018-12-30T20:49:30.242Z,13.87
2018-12-30T20:51:57.779Z,18.73
2018-12-30T20:54:25.065Z,19.50
2018-12-30T20:56:52.610Z,14.30
2018-12-30T20:59:19.862Z,12.53
2018-12-30T21:01:47.390Z,12.77
2018-12-30T21:04:14.639Z,11.47
2018-12-30T21:06:41.922Z,13.70
2018-12-30T21:09:09.197Z,14.97
2018-12-30T21:11:36.457Z,14.57
2018-12-30T21:14:03.714Z,14.90
2018-12-30T21:16:30.992Z,14.40
2018-12-30T21:18:58.534Z,13.93
2018-12-30T21:21:25.789Z,13.87
2018-12-30T21:23:53.039Z,15.77
2018-12-30T21:26:20.338Z,13.93
2018-12-30T21:28:47.641Z,15.20
2018-12-30T21:31:14.924Z,14.03
2018-12-30T21:33:42.166Z,15.67
2018-12-30T21:36:09.450Z,14.73
2018-12-30T21:38:36.697Z,21.60
2018-12-30T21:41:04.227Z,13.50
2018-12-30T21:43:31.555Z,16.30
2018-12-30T21:45:58.854Z,16.20
2018-12-30T21:48:26.114Z,14.53
2018-12-30T21:50:53.654Z,14.27
2018-12-30T21:53:20.912Z,15.43
2018-12-30T21:55:48.165Z,13.40
2018-12-30T21:58:15.438Z,15.13
2018-12-30T22:00:42.696Z,13.67
2018-12-30T22:03:10.214Z,15.90
2018-12-30T22:05:37.566Z,10.93
2018-12-30T22:08:05.190Z,16.40
2018-12-30T22:10:32.478Z,17.47
2018-12-30T22:12:59.731Z,13.27
2018-12-30T22:15:26.977Z,10.43
2018-12-30T22:17:54.506Z,12.00
2018-12-30T22:20:21.870Z,15.97
2018-12-30T22:22:49.115Z,13.40
2018-12-30T22:25:16.478Z,12.70
2018-12-30T22:27:43.814Z,11.53
2018-12-30T22:30:11.058Z,17.03
2018-12-30T22:32:38.333Z,10.00
2018-12-30T22:35:05.859Z,13.30
2018-12-30T22:37:33.359Z,8.80
2018-12-30T22:40:00.910Z,8.87
2018-12-30T22:42:32.617Z,8.93
2018-12-30T22:44:57.395Z,10.03
2018-12-30T22:47:24.644Z,11.40
2018-12-30T22:49:52.165Z,10.83
2018-12-30T22:52:19.411Z,8.90
2018-12-30T22:54:46.672Z,10.50
2018-12-30T22:57:14.195Z,7.13
2018-12-30T22:59:41.477Z,8.53
2018-12-30T23:02:08.714Z,7.40
2018-12-30T23:04:35.981Z,9.17
2018-12-30T23:07:03.274Z,7.90
2018-12-30T23:09:30.501Z,6.27
2018-12-30T23:11:57.754Z,6.07
2018-12-30T23:14:25.026Z,6.10
2018-12-30T23:16:52.532Z,5.70
2018-12-30T23:19:20.047Z,7.47
2018-12-30T23:21:47.285Z,5.40
2018-12-30T23:24:14.834Z,8.13
2018-12-30T23:26:42.358Z,5.57
2018-12-30T23:29:09.633Z,11.20
2018-12-30T23:31:36.878Z,5.57
2018-12-30T23:34:04.162Z,6.27
2018-12-30T23:36:31.410Z,7.30
2018-12-30T23:38:58.678Z,6.37
2018-12-30T23:41:25.963Z,12.37
2018-12-30T23:43:53.497Z,7.30
2018-12-30T23:46:20.742Z,6.30
2018-12-30T23:48:47.986Z,7.30
2018-12-30T23:51:15.359Z,7.73
2018-12-30T23:53:42.597Z,8.00
2018-12-30T23:56:09.842Z,6.57
2018-12-30T23:58:37.116Z,8.80
